createdAt,value
2018-05-10T00:01:30.243Z,6.57
2018-05-10T00:03:57.743Z,6.57
2018-05-10T00:06:26.003Z,6.97
2018-05-10T00:08:53.520Z,7.00
2018-05-10T00:11:21.071Z,6.87
2018-05-10T00:13:49.385Z,6.12
2018-05-10T00:16:17.637Z,6.75
2018-05-10T00:18:45.231Z,5.90
2018-05-10T00:21:12.731Z,6.05
2018-05-10T00:23:40.233Z,8.75
2018-05-10T00:26:07.729Z,8.15
2018-05-10T00:28:35.996Z,7.62
2018-05-10T00:31:03.514Z,12.98
2018-05-10T00:33:31.010Z,7.40
2018-05-10T00:35:58.530Z,6.53
2018-05-10T00:38:26.817Z,6.57
2018-05-10T00:40:54.366Z,6.57
2018-05-10T00:43:21.876Z,6.40
2018-05-10T00:46:08.720Z,6.00
2018-05-10T00:48:37.298Z,5.05
2018-05-10T00:54:04.715Z,5.28
2018-05-10T00:56:32.251Z,5.80
2018-05-10T00:58:59.734Z,5.30
2018-05-10T01:01:27.277Z,5.12
2018-05-10T01:03:54.750Z,4.68
2018-05-10T01:06:23.020Z,4.93
2018-05-10T01:08:50.532Z,4.97
2018-05-10T01:11:18.777Z,5.07
2018-05-10T01:13:46.272Z,4.40
2018-05-10T01:16:14.536Z,4.57
2018-05-10T01:18:42.018Z,4.55
2018-05-10T01:21:10.324Z,4.70
2018-05-10T01:23:38.591Z,4.90
2018-05-10T01:26:06.822Z,4.37
2018-05-10T01:34:57.251Z,4.28
2018-05-10T01:37:24.792Z,4.25
2018-05-10T01:39:53.052Z,4.40
2018-05-10T01:42:20.571Z,4.28
2018-05-10T01:44:48.061Z,4.50
2018-05-10T01:47:15.763Z,4.50
2018-05-10T01:49:43.252Z,4.25
2018-05-10T01:52:10.771Z,4.30
2018-05-10T01:54:39.043Z,4.10
2018-05-10T01:57:06.530Z,4.15
2018-05-10T01:59:34.059Z,3.93
2018-05-10T02:02:01.524Z,4.85
2018-05-10T02:04:29.048Z,28.48
2018-05-10T02:06:57.309Z,4.40
2018-05-10T02:09:24.816Z,4.32
2018-05-10T02:11:53.064Z,4.72
2018-05-10T02:14:20.853Z,3.90
2018-05-10T02:16:49.130Z,4.40
2018-05-10T02:19:16.604Z,4.05
2018-05-10T02:21:44.143Z,3.40
2018-05-10T02:24:11.717Z,3.33
2018-05-10T02:26:39.196Z,5.10
2018-05-10T02:29:06.696Z,2.90
2018-05-10T02:31:35.057Z,3.50
2018-05-10T02:34:21.255Z,3.73
2018-05-10T02:36:48.809Z,3.80
2018-05-10T02:39:24.480Z,3.70
2018-05-10T02:41:51.970Z,3.50
2018-05-10T02:44:19.464Z,3.50
2018-05-10T02:46:46.965Z,3.40
2018-05-10T02:49:14.563Z,3.33
2018-05-10T02:51:42.048Z,3.40
2018-05-10T02:54:09.548Z,3.27
2018-05-10T02:56:37.043Z,3.65
2018-05-10T02:59:05.696Z,3.50
2018-05-10T03:01:33.193Z,9.60
2018-05-10T03:04:01.541Z,3.50
2018-05-10T03:06:29.099Z,3.10
2018-05-10T03:08:56.572Z,3.08
2018-05-10T03:11:24.076Z,3.53
2018-05-10T03:13:51.588Z,2.93
2018-05-10T03:19:17.922Z,19.08
2018-05-10T03:22:10.892Z,12.95
2018-05-10T03:24:39.643Z,57.97
2018-05-10T03:27:09.296Z,8.00
2018-05-10T03:29:39.157Z,8.43
2018-05-10T03:35:09.086Z,33.00
2018-05-10T03:37:40.083Z,11.48
2018-05-10T03:40:09.678Z,10.82
2018-05-10T03:42:39.489Z,10.00
2018-05-10T03:45:09.057Z,10.88
2018-05-10T03:47:40.433Z,25.97
2018-05-10T03:50:09.342Z,11.32
2018-05-10T03:52:41.418Z,3.65
2018-05-10T03:55:11.364Z,14.43
2018-05-10T03:57:39.186Z,5.62
2018-05-10T04:00:12.500Z,3.90
2018-05-10T05:10:00.612Z,5.57
2018-05-10T05:12:29.497Z,6.60
2018-05-10T05:22:10.054Z,7.70
2018-05-10T05:27:38.531Z,7.53
2018-05-10T05:30:09.682Z,9.05
2018-05-10T05:32:38.529Z,8.68
2018-05-10T05:35:09.698Z,8.98
2018-05-10T05:37:39.404Z,9.43
2018-05-10T05:40:10.446Z,9.70
2018-05-10T05:45:38.512Z,10.03
2018-05-10T05:48:08.517Z,11.00
2018-05-10T05:50:40.234Z,11.68
2018-05-10T05:53:09.076Z,12.15
2018-05-10T05:55:39.093Z,11.95
2018-05-10T06:01:08.664Z,11.65
2018-05-10T06:04:07.811Z,10.88
2018-05-10T06:10:40.716Z,10.10
2018-05-10T06:13:08.748Z,11.40
2018-05-10T06:15:40.207Z,12.18
2018-05-10T06:18:09.042Z,11.93
2018-05-10T06:20:38.479Z,11.40
2018-05-10T06:23:09.402Z,13.50
2018-05-10T06:25:39.350Z,13.13
2018-05-10T06:28:10.241Z,12.70
2018-05-10T06:30:38.920Z,12.95
2018-05-10T06:33:09.786Z,14.63
2018-05-10T06:35:38.408Z,14.25
2018-05-10T06:38:09.001Z,12.10
2018-05-10T06:40:40.196Z,11.45
2018-05-10T06:43:07.764Z,12.02
2018-05-10T06:45:38.714Z,10.73
2018-05-10T06:48:09.390Z,10.05
2018-05-10T06:50:40.331Z,11.18
2018-05-10T06:53:11.416Z,10.15
2018-05-10T06:55:39.085Z,12.43
2018-05-10T06:58:09.787Z,12.37
2018-05-10T07:00:38.572Z,11.85
2018-05-10T07:03:09.010Z,12.15
2018-05-10T07:05:40.410Z,11.50
2018-05-10T07:08:10.347Z,11.90
2018-05-10T07:10:38.710Z,10.65
2018-05-10T07:13:09.867Z,11.02
2018-05-10T07:15:38.965Z,10.75
2018-05-10T07:18:08.733Z,10.75
2018-05-10T07:20:37.547Z,10.60
2018-05-10T07:23:08.815Z,10.85
2018-05-10T07:25:38.828Z,10.57
2018-05-10T07:28:08.507Z,10.05
2018-05-10T07:30:47.067Z,9.48
2018-05-10T07:33:32.298Z,10.52
2018-05-10T07:36:08.725Z,8.73
2018-05-10T07:38:40.793Z,8.80
2018-05-10T07:41:10.135Z,7.80
2018-05-10T07:43:38.494Z,10.43
2018-05-10T07:46:09.090Z,7.87
2018-05-10T07:48:39.861Z,7.20
2018-05-10T07:51:09.403Z,6.72
2018-05-10T07:53:39.108Z,6.50
2018-05-10T07:56:09.560Z,6.55
2018-05-10T07:58:38.158Z,6.73
2018-05-10T08:01:09.056Z,7.95
2018-05-10T08:03:38.284Z,7.50
2018-05-10T08:06:07.316Z,6.93
2018-05-10T08:08:40.255Z,8.07
2018-05-10T08:11:08.595Z,5.53
2018-05-10T08:13:38.848Z,6.35
2018-05-10T08:16:09.067Z,5.82
2018-05-10T08:18:38.537Z,5.47
2018-05-10T08:21:09.914Z,6.35
2018-05-10T08:23:50.622Z,5.10
2018-05-10T08:26:29.056Z,5.57
2018-05-10T08:29:04.508Z,8.75
2018-05-10T08:31:40.176Z,8.18
2018-05-10T08:34:09.391Z,6.03
2018-05-10T08:36:38.798Z,4.95
2018-05-10T08:39:08.976Z,4.37
2018-05-10T08:41:38.230Z,5.77
2018-05-10T08:44:06.590Z,4.62
2018-05-10T08:46:38.827Z,5.57
2018-05-10T08:49:07.529Z,6.40
2018-05-10T08:51:38.148Z,4.87
2018-05-10T08:54:08.648Z,4.10
2018-05-10T08:56:38.638Z,5.32
2018-05-10T08:59:07.843Z,3.70
2018-05-10T09:01:39.047Z,5.10
2018-05-10T09:04:08.943Z,4.20
2018-05-10T09:09:38.687Z,4.05
2018-05-10T09:12:07.642Z,4.43
2018-05-10T09:14:38.670Z,6.75
2018-05-10T09:17:08.930Z,3.67
2018-05-10T09:19:39.044Z,6.97
2018-05-10T09:22:10.064Z,5.62
2018-05-10T09:24:38.539Z,4.90
2018-05-10T09:27:08.366Z,5.10
2018-05-10T09:29:38.687Z,5.47
2018-05-10T09:32:09.296Z,3.72
2018-05-10T09:34:38.652Z,4.85
2018-05-10T09:37:08.953Z,4.05
2018-05-10T09:39:38.843Z,5.30
2018-05-10T09:42:08.783Z,3.95
2018-05-10T09:44:39.209Z,3.58
2018-05-10T09:47:08.603Z,4.95
2018-05-10T09:49:57.445Z,5.87
2018-05-10T10:05:05.707Z,6.93
2018-05-10T10:07:39.568Z,6.43
2018-05-10T10:10:11.072Z,11.47
2018-05-10T10:12:40.275Z,9.95
2018-05-10T10:15:09.756Z,10.05
2018-05-10T10:17:37.580Z,7.57
2018-05-10T10:23:09.772Z,8.80
2018-05-10T10:25:39.267Z,8.77
2018-05-10T10:28:08.011Z,7.37
2018-05-10T10:30:38.802Z,8.43
2018-05-10T10:33:08.682Z,7.80
2018-05-10T10:35:38.631Z,9.67
2018-05-10T10:38:10.223Z,7.70
2018-05-10T10:40:38.536Z,7.10
2018-05-10T10:43:08.846Z,6.90
2018-05-10T10:45:37.412Z,6.97
2018-05-10T10:48:08.480Z,7.25
2018-05-10T10:50:38.329Z,7.47
2018-05-10T10:53:09.935Z,7.30
2018-05-10T10:55:38.954Z,8.07
2018-05-10T10:58:08.922Z,6.72
2018-05-10T11:00:38.412Z,6.05
2018-05-10T11:03:09.569Z,7.00
2018-05-10T11:05:38.832Z,7.10
2018-05-10T11:08:09.602Z,14.00
2018-05-10T11:10:39.424Z,6.50
2018-05-10T11:13:08.515Z,8.83
2018-05-10T11:15:39.000Z,8.35
2018-05-10T11:18:09.519Z,7.27
2018-05-10T11:20:38.865Z,17.50
2018-05-10T11:23:09.566Z,9.95
2018-05-10T11:25:41.698Z,10.43
2018-05-10T11:28:09.261Z,9.75
2018-05-10T12:06:14.324Z,15.20
2018-05-10T12:08:42.708Z,14.73
2018-05-10T12:11:10.347Z,14.13
2018-05-10T12:13:39.062Z,16.00
2018-05-10T12:16:09.984Z,15.48
2018-05-10T12:21:39.430Z,17.52
2018-05-10T12:24:09.191Z,17.05
2018-05-10T12:26:51.228Z,15.75
2018-05-10T12:29:36.374Z,15.13
2018-05-10T12:32:09.713Z,16.45
2018-05-10T12:34:39.199Z,18.80
2018-05-10T12:37:09.937Z,18.08
2018-05-10T12:45:40.178Z,30.58
2018-05-10T12:48:15.958Z,25.93
2018-05-10T12:50:46.771Z,20.88
2018-05-10T12:53:14.617Z,21.80
2018-05-10T12:55:44.469Z,24.65
2018-05-10T13:58:38.033Z,5.23
2018-05-10T14:01:08.652Z,4.80
2018-05-10T14:03:40.581Z,5.18
2018-05-10T14:06:09.151Z,5.23
2018-05-10T14:08:37.974Z,5.32
2018-05-10T14:11:09.490Z,4.87
2018-05-10T14:13:37.157Z,4.72
2018-05-10T14:16:09.598Z,7.10
2018-05-10T14:18:37.170Z,4.60
2018-05-10T14:27:09.985Z,4.75
2018-05-10T14:34:40.815Z,5.72
2018-05-10T14:37:12.775Z,8.82
2018-05-10T15:32:38.353Z,7.75
2018-05-10T15:35:07.071Z,8.93
2018-05-10T15:37:34.644Z,8.68
2018-05-10T15:43:38.027Z,7.73
2018-05-10T15:46:08.545Z,8.38
2018-05-10T15:48:37.009Z,8.95
2018-05-10T15:54:35.335Z,8.88
2018-05-10T15:57:08.936Z,10.18
2018-05-10T15:59:37.319Z,12.82
2018-05-10T16:02:34.738Z,11.88
2018-05-10T16:05:07.867Z,12.43
2018-05-10T16:07:37.315Z,11.95
2018-05-10T16:10:08.638Z,14.20
2018-05-10T16:12:36.249Z,15.35
2018-05-10T16:15:03.775Z,14.00
2018-05-10T16:17:31.688Z,13.90
2018-05-10T16:20:00.086Z,23.35
2018-05-10T16:22:28.373Z,24.15
2018-05-10T16:24:56.830Z,16.70
2018-05-10T16:27:25.470Z,17.10
2018-05-10T16:30:07.742Z,20.05
2018-05-10T16:32:38.539Z,15.30
2018-05-10T16:35:06.063Z,16.17
2018-05-10T16:37:33.559Z,14.77
2018-05-10T16:40:01.891Z,15.15
2018-05-10T16:42:29.398Z,15.07
2018-05-10T16:44:56.936Z,13.57
2018-05-10T16:47:24.457Z,14.18
2018-05-10T16:49:52.832Z,13.77
2018-05-10T16:52:20.319Z,13.90
2018-05-10T16:54:47.859Z,11.82
2018-05-10T16:57:15.354Z,12.02
2018-05-10T16:59:43.708Z,13.48
2018-05-10T17:02:14.180Z,12.10
2018-05-10T17:07:37.877Z,11.43
2018-05-10T17:10:05.650Z,9.13
2018-05-10T17:12:33.142Z,8.75
2018-05-10T17:15:02.267Z,5.83
2018-05-10T17:17:34.032Z,6.37
2018-05-10T17:23:06.148Z,5.35
2018-05-10T17:25:36.567Z,4.57
2018-05-10T17:28:07.606Z,4.80
2018-05-10T17:30:38.539Z,7.03
2018-05-10T17:33:06.519Z,5.75
2018-05-10T20:33:13.055Z,15.25
2018-05-10T20:35:48.118Z,14.57
2018-05-10T20:38:15.785Z,14.75
2018-05-10T20:40:43.335Z,14.20
2018-05-10T20:43:11.016Z,14.13
2018-05-10T20:45:38.572Z,14.13
2018-05-10T20:48:06.110Z,16.17
2018-05-10T20:50:33.855Z,14.35
2018-05-10T20:53:01.449Z,13.85
2018-05-10T20:58:31.598Z,16.20
2018-05-10T21:04:02.667Z,18.10
2018-05-10T21:06:30.156Z,13.73
2018-05-10T21:08:57.763Z,17.30
2018-05-10T21:11:25.311Z,15.65
2018-05-10T21:13:52.858Z,16.75
2018-05-10T21:16:20.416Z,17.15
2018-05-10T21:18:49.903Z,17.08
2018-05-10T21:21:17.397Z,16.85
2018-05-10T21:23:45.144Z,17.67
2018-05-10T21:26:12.695Z,18.17
2018-05-10T21:28:42.486Z,20.30
2018-05-10T21:31:10.160Z,17.12
2018-05-10T21:33:37.707Z,17.23
2018-05-10T21:36:05.967Z,14.98
2018-05-10T21:38:33.522Z,15.77
2018-05-10T21:41:01.073Z,16.35
2018-05-10T21:43:36.293Z,18.27
2018-05-10T21:46:03.851Z,19.17
2018-05-10T21:48:32.130Z,15.80
2018-05-10T21:50:59.697Z,18.27
2018-05-10T21:53:29.171Z,15.55
2018-05-10T21:55:56.710Z,16.10
2018-05-10T21:58:40.203Z,18.08
2018-05-10T22:01:07.738Z,17.80
2018-05-10T22:03:35.602Z,19.42
2018-05-10T22:06:03.481Z,17.65
2018-05-10T22:08:31.887Z,18.10
2018-05-10T22:10:59.458Z,18.87
2018-05-10T22:13:26.934Z,16.27
2018-05-10T22:15:54.450Z,16.35
2018-05-10T22:18:21.999Z,16.98
2018-05-10T22:20:50.639Z,19.08
2018-05-10T22:23:18.890Z,19.65
2018-05-10T22:25:46.503Z,17.35
2018-05-10T22:28:14.087Z,17.67
2018-05-10T22:33:34.619Z,18.62
2018-05-10T22:36:02.919Z,21.20
2018-05-10T22:38:30.469Z,19.77
2018-05-10T22:40:58.041Z,18.23
2018-05-10T22:43:26.312Z,18.70
2018-05-10T22:45:53.822Z,21.70
2018-05-10T22:48:21.366Z,22.13
2018-05-10T22:50:48.891Z,18.58
2018-05-10T22:53:16.392Z,20.02
2018-05-10T22:55:44.011Z,21.03
2018-05-10T22:58:11.528Z,19.67
2018-05-10T23:00:39.113Z,20.95
2018-05-10T23:03:06.724Z,21.92
2018-05-10T23:05:34.844Z,21.35
2018-05-10T23:08:02.383Z,22.45
2018-05-10T23:10:30.011Z,22.90
2018-05-10T23:15:50.678Z,23.40
2018-05-10T23:18:18.983Z,24.73
2018-05-10T23:20:46.518Z,22.27
2018-05-10T23:23:14.798Z,20.20
2018-05-10T23:25:42.352Z,20.23
2018-05-10T23:28:10.046Z,20.50
2018-05-10T23:30:37.578Z,22.73
2018-05-10T23:39:02.037Z,23.73
2018-05-10T23:41:49.989Z,21.20
2018-05-10T23:44:17.633Z,23.85
2018-05-10T23:46:45.181Z,23.10
2018-05-10T23:49:14.805Z,25.10
